KCXO/CXO METAR and TAF weather

Enter ICAO airport designator
Station Type Date Time Source
KCXO METAR 2024/05/28 23:53 UTC NOAA

KCXO 282353Z 16009G17KT 10SM CLR 25/19 A2993 RMK AO2 SLP130 60115 T02500189 10261 20183 58039


Station Type Date Time Source
KCXO Decoded METAR 2024/05/28 23:53 UTC NOAA

LONE STAR EXECUTIVE AIRPORT, TX, United States (KCXO) 30-21N 95-25W 75M
May 28, 2024 - 07:53 PM EDT / 2024.05.28 2353 UTC
Wind: from the SSE (160 degrees) at 10 MPH (9 KT) gusting to 20 MPH (17 KT):0
Visibility: 10 mile(s):0
Sky conditions: clear
Temperature: 77.0 F (25.0 C)
Dew Point: 66.0 F (18.9 C)
Relative Humidity: 68%
Pressure (altimeter): 29.93 in. Hg (1013 hPa)
Pressure tendency: 0.12 inches (3.9 hPa) lower than three hours ago
ob: KCXO 282353Z 16009G17KT 10SM CLR 25/19 A2993 RMK AO2 SLP130 60115 T02500189 10261 20183 58039
cycle: 0

Station Type Date Time Source
KCXO TAF 2024/05/28 21:09 UTC NOAA